sensor_id;sensor_type;location;lat;lon;timestamp;P1;durP1;ratioP1;P2;durP2;ratioP2
27857;SDS011;16852;51.446;6.528;2023-07-31T00:00:04;9.10;;;3.67;;
27857;SDS011;16852;51.446;6.528;2023-07-31T00:02:05;9.40;;;3.88;;
27857;SDS011;16852;51.446;6.528;2023-07-31T00:04:06;7.28;;;3.33;;
27857;SDS011;16852;51.446;6.528;2023-07-31T00:06:07;10.77;;;3.95;;
27857;SDS011;16852;51.446;6.528;2023-07-31T00:08:07;7.63;;;3.53;;
27857;SDS011;16852;51.446;6.528;2023-07-31T00:10:08;10.15;;;3.80;;
27857;SDS011;16852;51.446;6.528;2023-07-31T00:12:09;7.55;;;3.45;;
27857;SDS011;16852;51.446;6.528;2023-07-31T00:14:09;10.95;;;3.97;;
27857;SDS011;16852;51.446;6.528;2023-07-31T00:16:10;9.65;;;4.03;;
27857;SDS011;16852;51.446;6.528;2023-07-31T00:18:10;10.98;;;3.88;;
27857;SDS011;16852;51.446;6.528;2023-07-31T00:20:11;15.63;;;4.82;;
27857;SDS011;16852;51.446;6.528;2023-07-31T00:22:12;10.38;;;4.45;;
27857;SDS011;16852;51.446;6.528;2023-07-31T00:24:12;8.73;;;4.13;;
27857;SDS011;16852;51.446;6.528;2023-07-31T00:26:13;9.82;;;4.20;;
27857;SDS011;16852;51.446;6.528;2023-07-31T00:28:13;7.13;;;3.42;;
27857;SDS011;16852;51.446;6.528;2023-07-31T00:30:14;12.52;;;4.30;;
27857;SDS011;16852;51.446;6.528;2023-07-31T00:32:15;10.75;;;4.25;;
27857;SDS011;16852;51.446;6.528;2023-07-31T00:34:15;7.72;;;3.45;;
27857;SDS011;16852;51.446;6.528;2023-07-31T00:36:16;9.25;;;3.70;;
27857;SDS011;16852;51.446;6.528;2023-07-31T00:38:18;9.55;;;3.90;;
27857;SDS011;16852;51.446;6.528;2023-07-31T00:40:18;10.25;;;4.55;;
27857;SDS011;16852;51.446;6.528;2023-07-31T00:42:19;12.70;;;4.93;;
27857;SDS011;16852;51.446;6.528;2023-07-31T00:44:19;14.02;;;5.22;;
27857;SDS011;16852;51.446;6.528;2023-07-31T00:46:20;11.38;;;3.60;;
27857;SDS011;16852;51.446;6.528;2023-07-31T00:48:21;10.43;;;4.32;;
27857;SDS011;16852;51.446;6.528;2023-07-31T00:50:23;10.30;;;4.13;;
27857;SDS011;16852;51.446;6.528;2023-07-31T00:52:25;14.75;;;4.78;;
27857;SDS011;16852;51.446;6.528;2023-07-31T00:54:25;11.30;;;4.70;;
27857;SDS011;16852;51.446;6.528;2023-07-31T00:56:26;8.80;;;4.03;;
27857;SDS011;16852;51.446;6.528;2023-07-31T00:58:28;11.52;;;3.42;;
27857;SDS011;16852;51.446;6.528;2023-07-31T01:00:28;9.05;;;4.40;;
27857;SDS011;16852;51.446;6.528;2023-07-31T01:02:29;10.15;;;4.07;;
27857;SDS011;16852;51.446;6.528;2023-07-31T01:04:30;9.57;;;3.90;;
27857;SDS011;16852;51.446;6.528;2023-07-31T01:06:33;11.48;;;4.60;;
27857;SDS011;16852;51.446;6.528;2023-07-31T01:11:15;9.38;;;4.65;;
27857;SDS011;16852;51.446;6.528;2023-07-31T01:13:19;9.18;;;3.95;;
27857;SDS011;16852;51.446;6.528;2023-07-31T01:15:21;8.03;;;3.60;;
27857;SDS011;16852;51.446;6.528;2023-07-31T01:17:21;9.85;;;4.18;;
27857;SDS011;16852;51.446;6.528;2023-07-31T01:19:23;9.05;;;3.92;;
27857;SDS011;16852;51.446;6.528;2023-07-31T01:23:49;7.00;;;3.35;;
27857;SDS011;16852;51.446;6.528;2023-07-31T01:26:10;6.88;;;3.47;;
27857;SDS011;16852;51.446;6.528;2023-07-31T01:28:31;12.93;;;4.50;;
27857;SDS011;16852;51.446;6.528;2023-07-31T01:30:44;10.63;;;4.22;;
27857;SDS011;16852;51.446;6.528;2023-07-31T01:32:48;11.25;;;3.90;;
27857;SDS011;16852;51.446;6.528;2023-07-31T01:36:52;8.15;;;3.70;;
27857;SDS011;16852;51.446;6.528;2023-07-31T01:38:53;9.93;;;4.65;;
27857;SDS011;16852;51.446;6.528;2023-07-31T01:40:58;9.30;;;3.38;;
27857;SDS011;16852;51.446;6.528;2023-07-31T01:42:59;10.20;;;3.75;;
27857;SDS011;16852;51.446;6.528;2023-07-31T01:44:59;9.23;;;4.07;;
27857;SDS011;16852;51.446;6.528;2023-07-31T01:47:00;13.30;;;4.20;;
27857;SDS011;16852;51.446;6.528;2023-07-31T01:49:00;9.82;;;3.90;;
27857;SDS011;16852;51.446;6.528;2023-07-31T01:51:01;8.80;;;4.15;;
27857;SDS011;16852;51.446;6.528;2023-07-31T01:53:02;7.20;;;3.70;;
27857;SDS011;16852;51.446;6.528;2023-07-31T01:55:03;13.50;;;4.57;;
27857;SDS011;16852;51.446;6.528;2023-07-31T01:57:04;9.20;;;3.92;;
27857;SDS011;16852;51.446;6.528;2023-07-31T01:59:05;9.40;;;3.92;;
27857;SDS011;16852;51.446;6.528;2023-07-31T02:01:05;9.45;;;4.15;;
27857;SDS011;16852;51.446;6.528;2023-07-31T02:03:06;8.40;;;3.75;;
27857;SDS011;16852;51.446;6.528;2023-07-31T02:05:06;11.10;;;3.78;;
27857;SDS011;16852;51.446;6.528;2023-07-31T02:07:07;20.25;;;4.72;;
27857;SDS011;16852;51.446;6.528;2023-07-31T02:09:08;10.68;;;4.57;;
27857;SDS011;16852;51.446;6.528;2023-07-31T02:11:08;16.95;;;5.00;;
27857;SDS011;16852;51.446;6.528;2023-07-31T02:13:09;9.85;;;4.28;;
27857;SDS011;16852;51.446;6.528;2023-07-31T02:15:10;6.95;;;3.97;;
27857;SDS011;16852;51.446;6.528;2023-07-31T02:17:10;12.48;;;5.07;;
27857;SDS011;16852;51.446;6.528;2023-07-31T02:19:11;7.82;;;4.30;;
27857;SDS011;16852;51.446;6.528;2023-07-31T02:21:11;11.50;;;4.18;;
27857;SDS011;16852;51.446;6.528;2023-07-31T02:23:12;15.45;;;4.53;;
27857;SDS011;16852;51.446;6.528;2023-07-31T02:25:13;8.30;;;3.78;;
27857;SDS011;16852;51.446;6.528;2023-07-31T02:27:14;12.32;;;4.93;;
27857;SDS011;16852;51.446;6.528;2023-07-31T02:29:14;10.98;;;4.40;;
27857;SDS011;16852;51.446;6.528;2023-07-31T02:31:15;10.48;;;4.47;;
27857;SDS011;16852;51.446;6.528;2023-07-31T02:33:15;13.95;;;4.75;;
27857;SDS011;16852;51.446;6.528;2023-07-31T02:35:16;7.80;;;3.65;;
27857;SDS011;16852;51.446;6.528;2023-07-31T02:37:18;12.52;;;4.05;;
27857;SDS011;16852;51.446;6.528;2023-07-31T02:39:19;16.17;;;4.35;;
27857;SDS011;16852;51.446;6.528;2023-07-31T02:41:19;9.98;;;3.97;;
27857;SDS011;16852;51.446;6.528;2023-07-31T02:43:20;9.60;;;3.95;;
27857;SDS011;16852;51.446;6.528;2023-07-31T02:45:20;12.70;;;4.63;;
27857;SDS011;16852;51.446;6.528;2023-07-31T02:47:21;11.57;;;4.32;;
27857;SDS011;16852;51.446;6.528;2023-07-31T02:49:22;9.93;;;3.78;;
27857;SDS011;16852;51.446;6.528;2023-07-31T02:51:23;12.50;;;4.78;;
27857;SDS011;16852;51.446;6.528;2023-07-31T02:53:24;7.97;;;3.85;;
27857;SDS011;16852;51.446;6.528;2023-07-31T02:55:24;9.68;;;4.53;;
27857;SDS011;16852;51.446;6.528;2023-07-31T02:57:25;16.08;;;5.00;;
27857;SDS011;16852;51.446;6.528;2023-07-31T02:59:25;10.32;;;4.50;;
27857;SDS011;16852;51.446;6.528;2023-07-31T03:03:28;8.93;;;3.67;;
27857;SDS011;16852;51.446;6.528;2023-07-31T03:05:29;11.85;;;3.97;;
27857;SDS011;16852;51.446;6.528;2023-07-31T03:07:30;11.88;;;4.13;;
27857;SDS011;16852;51.446;6.528;2023-07-31T03:09:30;12.50;;;4.43;;
27857;SDS011;16852;51.446;6.528;2023-07-31T03:11:31;12.88;;;3.67;;
27857;SDS011;16852;51.446;6.528;2023-07-31T03:13:31;9.23;;;4.07;;
27857;SDS011;16852;51.446;6.528;2023-07-31T03:15:32;10.52;;;4.47;;
27857;SDS011;16852;51.446;6.528;2023-07-31T03:17:33;14.82;;;4.47;;
27857;SDS011;16852;51.446;6.528;2023-07-31T03:19:33;16.77;;;4.63;;
27857;SDS011;16852;51.446;6.528;2023-07-31T03:21:34;8.70;;;3.60;;
27857;SDS011;16852;51.446;6.528;2023-07-31T03:23:35;11.52;;;4.22;;
27857;SDS011;16852;51.446;6.528;2023-07-31T03:25:35;16.10;;;4.63;;
27857;SDS011;16852;51.446;6.528;2023-07-31T03:27:36;11.73;;;5.13;;
27857;SDS011;16852;51.446;6.528;2023-07-31T03:29:36;8.75;;;4.18;;
27857;SDS011;16852;51.446;6.528;2023-07-31T03:31:37;9.93;;;4.20;;
27857;SDS011;16852;51.446;6.528;2023-07-31T03:33:37;12.45;;;4.20;;
27857;SDS011;16852;51.446;6.528;2023-07-31T03:35:38;10.93;;;4.65;;
27857;SDS011;16852;51.446;6.528;2023-07-31T03:37:39;7.53;;;4.00;;
27857;SDS011;16852;51.446;6.528;2023-07-31T03:39:40;10.55;;;4.05;;
27857;SDS011;16852;51.446;6.528;2023-07-31T03:41:40;7.63;;;3.53;;
27857;SDS011;16852;51.446;6.528;2023-07-31T03:43:41;8.00;;;3.42;;
27857;SDS011;16852;51.446;6.528;2023-07-31T03:45:41;7.80;;;3.95;;
27857;SDS011;16852;51.446;6.528;2023-07-31T03:47:42;11.77;;;4.25;;
27857;SDS011;16852;51.446;6.528;2023-07-31T03:49:43;13.18;;;4.03;;
27857;SDS011;16852;51.446;6.528;2023-07-31T03:51:43;9.18;;;4.25;;
27857;SDS011;16852;51.446;6.528;2023-07-31T03:53:44;10.93;;;4.07;;
27857;SDS011;16852;51.446;6.528;2023-07-31T03:55:45;8.73;;;3.50;;
27857;SDS011;16852;51.446;6.528;2023-07-31T03:57:46;10.23;;;3.90;;
27857;SDS011;16852;51.446;6.528;2023-07-31T03:59:46;11.00;;;4.15;;
27857;SDS011;16852;51.446;6.528;2023-07-31T04:01:47;13.98;;;4.53;;
27857;SDS011;16852;51.446;6.528;2023-07-31T04:03:47;10.20;;;3.85;;
27857;SDS011;16852;51.446;6.528;2023-07-31T04:05:48;7.47;;;3.78;;
27857;SDS011;16852;51.446;6.528;2023-07-31T04:07:48;8.70;;;3.50;;
27857;SDS011;16852;51.446;6.528;2023-07-31T04:09:49;8.55;;;4.10;;
27857;SDS011;16852;51.446;6.528;2023-07-31T04:11:50;8.85;;;3.90;;
27857;SDS011;16852;51.446;6.528;2023-07-31T04:13:50;11.30;;;4.07;;
27857;SDS011;16852;51.446;6.528;2023-07-31T04:15:51;12.45;;;4.80;;
27857;SDS011;16852;51.446;6.528;2023-07-31T04:17:51;11.98;;;3.83;;
27857;SDS011;16852;51.446;6.528;2023-07-31T04:19:52;8.88;;;3.92;;
27857;SDS011;16852;51.446;6.528;2023-07-31T04:21:53;7.55;;;3.45;;
27857;SDS011;16852;51.446;6.528;2023-07-31T04:23:53;7.30;;;3.55;;
27857;SDS011;16852;51.446;6.528;2023-07-31T04:25:56;9.48;;;3.70;;
27857;SDS011;16852;51.446;6.528;2023-07-31T04:27:56;6.63;;;3.50;;
27857;SDS011;16852;51.446;6.528;2023-07-31T04:29:57;11.13;;;3.95;;
27857;SDS011;16852;51.446;6.528;2023-07-31T04:31:57;10.07;;;3.67;;
27857;SDS011;16852;51.446;6.528;2023-07-31T04:33:58;11.70;;;4.32;;
27857;SDS011;16852;51.446;6.528;2023-07-31T04:35:59;8.57;;;3.83;;
27857;SDS011;16852;51.446;6.528;2023-07-31T04:37:59;11.55;;;4.50;;
27857;SDS011;16852;51.446;6.528;2023-07-31T04:40:00;9.25;;;3.53;;
27857;SDS011;16852;51.446;6.528;2023-07-31T04:42:00;8.45;;;3.72;;
27857;SDS011;16852;51.446;6.528;2023-07-31T04:44:01;8.32;;;3.90;;
27857;SDS011;16852;51.446;6.528;2023-07-31T04:46:03;9.48;;;4.53;;
27857;SDS011;16852;51.446;6.528;2023-07-31T04:48:04;8.40;;;3.45;;
27857;SDS011;16852;51.446;6.528;2023-07-31T04:50:05;8.98;;;4.10;;
27857;SDS011;16852;51.446;6.528;2023-07-31T04:52:06;10.30;;;3.80;;
27857;SDS011;16852;51.446;6.528;2023-07-31T04:54:07;9.43;;;3.90;;
27857;SDS011;16852;51.446;6.528;2023-07-31T04:56:07;7.65;;;3.50;;
27857;SDS011;16852;51.446;6.528;2023-07-31T04:58:08;6.75;;;3.63;;
27857;SDS011;16852;51.446;6.528;2023-07-31T05:00:08;10.35;;;4.13;;
27857;SDS011;16852;51.446;6.528;2023-07-31T05:02:11;9.10;;;3.80;;
27857;SDS011;16852;51.446;6.528;2023-07-31T05:04:13;10.18;;;3.75;;
27857;SDS011;16852;51.446;6.528;2023-07-31T05:06:14;8.18;;;3.97;;
27857;SDS011;16852;51.446;6.528;2023-07-31T05:08:15;6.82;;;3.63;;
27857;SDS011;16852;51.446;6.528;2023-07-31T05:10:17;9.50;;;4.05;;
27857;SDS011;16852;51.446;6.528;2023-07-31T05:12:18;6.97;;;3.75;;
27857;SDS011;16852;51.446;6.528;2023-07-31T05:14:18;9.02;;;4.05;;
27857;SDS011;16852;51.446;6.528;2023-07-31T05:16:20;9.35;;;4.00;;
27857;SDS011;16852;51.446;6.528;2023-07-31T05:18:20;9.52;;;4.07;;
27857;SDS011;16852;51.446;6.528;2023-07-31T05:20:21;7.30;;;3.83;;
27857;SDS011;16852;51.446;6.528;2023-07-31T05:22:22;6.40;;;3.67;;
27857;SDS011;16852;51.446;6.528;2023-07-31T05:24:22;7.35;;;3.83;;
27857;SDS011;16852;51.446;6.528;2023-07-31T05:26:23;7.47;;;3.05;;
27857;SDS011;16852;51.446;6.528;2023-07-31T05:28:23;10.43;;;4.53;;
27857;SDS011;16852;51.446;6.528;2023-07-31T05:30:24;9.88;;;3.70;;
27857;SDS011;16852;51.446;6.528;2023-07-31T05:32:25;9.38;;;3.78;;
27857;SDS011;16852;51.446;6.528;2023-07-31T05:34:25;5.22;;;3.45;;
27857;SDS011;16852;51.446;6.528;2023-07-31T05:36:26;11.32;;;4.15;;
27857;SDS011;16852;51.446;6.528;2023-07-31T05:38:27;5.03;;;3.30;;
27857;SDS011;16852;51.446;6.528;2023-07-31T05:40:27;5.85;;;3.67;;
27857;SDS011;16852;51.446;6.528;2023-07-31T05:42:28;7.05;;;3.58;;
27857;SDS011;16852;51.446;6.528;2023-07-31T05:44:28;6.10;;;3.33;;
27857;SDS011;16852;51.446;6.528;2023-07-31T05:46:29;6.38;;;3.53;;
27857;SDS011;16852;51.446;6.528;2023-07-31T05:48:31;8.52;;;3.78;;
27857;SDS011;16852;51.446;6.528;2023-07-31T05:50:31;8.98;;;4.35;;
27857;SDS011;16852;51.446;6.528;2023-07-31T05:52:32;5.97;;;3.65;;
27857;SDS011;16852;51.446;6.528;2023-07-31T05:54:32;8.48;;;4.30;;
27857;SDS011;16852;51.446;6.528;2023-07-31T05:56:33;9.80;;;4.60;;
27857;SDS011;16852;51.446;6.528;2023-07-31T05:58:34;6.53;;;3.92;;
27857;SDS011;16852;51.446;6.528;2023-07-31T06:00:35;6.38;;;3.40;;
27857;SDS011;16852;51.446;6.528;2023-07-31T06:02:35;6.68;;;3.75;;
27857;SDS011;16852;51.446;6.528;2023-07-31T06:04:36;6.93;;;3.80;;
27857;SDS011;16852;51.446;6.528;2023-07-31T06:06:37;9.20;;;3.88;;
27857;SDS011;16852;51.446;6.528;2023-07-31T06:08:38;4.88;;;3.08;;
27857;SDS011;16852;51.446;6.528;2023-07-31T06:10:39;7.82;;;3.60;;
27857;SDS011;16852;51.446;6.528;2023-07-31T06:12:40;7.25;;;4.10;;
27857;SDS011;16852;51.446;6.528;2023-07-31T06:14:41;8.13;;;4.00;;
27857;SDS011;16852;51.446;6.528;2023-07-31T06:16:41;8.27;;;3.65;;
27857;SDS011;16852;51.446;6.528;2023-07-31T06:18:44;7.82;;;3.88;;
27857;SDS011;16852;51.446;6.528;2023-07-31T06:20:44;14.40;;;3.60;;
27857;SDS011;16852;51.446;6.528;2023-07-31T06:22:45;7.72;;;4.03;;
27857;SDS011;16852;51.446;6.528;2023-07-31T06:24:46;8.73;;;3.85;;
27857;SDS011;16852;51.446;6.528;2023-07-31T06:26:46;6.93;;;3.60;;
27857;SDS011;16852;51.446;6.528;2023-07-31T06:28:47;6.60;;;3.72;;
27857;SDS011;16852;51.446;6.528;2023-07-31T06:30:47;8.30;;;3.38;;
27857;SDS011;16852;51.446;6.528;2023-07-31T06:32:48;7.32;;;4.22;;
27857;SDS011;16852;51.446;6.528;2023-07-31T06:34:49;5.70;;;2.97;;
27857;SDS011;16852;51.446;6.528;2023-07-31T06:36:50;6.75;;;3.35;;
27857;SDS011;16852;51.446;6.528;2023-07-31T06:38:50;7.10;;;3.78;;
27857;SDS011;16852;51.446;6.528;2023-07-31T06:40:51;7.03;;;3.78;;
27857;SDS011;16852;51.446;6.528;2023-07-31T06:42:52;7.07;;;3.50;;
27857;SDS011;16852;51.446;6.528;2023-07-31T06:44:53;6.57;;;3.58;;
27857;SDS011;16852;51.446;6.528;2023-07-31T06:46:53;6.65;;;3.15;;
27857;SDS011;16852;51.446;6.528;2023-07-31T06:48:54;4.70;;;3.08;;
27857;SDS011;16852;51.446;6.528;2023-07-31T06:50:55;8.07;;;3.72;;
27857;SDS011;16852;51.446;6.528;2023-07-31T06:52:55;5.80;;;3.00;;
27857;SDS011;16852;51.446;6.528;2023-07-31T06:57:19;5.35;;;3.17;;
27857;SDS011;16852;51.446;6.528;2023-07-31T06:59:20;5.15;;;3.28;;
27857;SDS011;16852;51.446;6.528;2023-07-31T07:01:20;8.00;;;3.65;;
27857;SDS011;16852;51.446;6.528;2023-07-31T07:03:21;5.97;;;3.35;;
27857;SDS011;16852;51.446;6.528;2023-07-31T07:05:21;4.97;;;2.80;;
27857;SDS011;16852;51.446;6.528;2023-07-31T07:07:22;5.97;;;3.05;;
27857;SDS011;16852;51.446;6.528;2023-07-31T07:09:23;5.72;;;3.28;;
27857;SDS011;16852;51.446;6.528;2023-07-31T07:11:23;3.80;;;2.55;;
27857;SDS011;16852;51.446;6.528;2023-07-31T07:13:24;6.05;;;3.40;;
27857;SDS011;16852;51.446;6.528;2023-07-31T07:15:24;7.15;;;3.42;;
27857;SDS011;16852;51.446;6.528;2023-07-31T07:17:25;5.88;;;3.17;;
27857;SDS011;16852;51.446;6.528;2023-07-31T07:19:27;8.80;;;3.50;;
27857;SDS011;16852;51.446;6.528;2023-07-31T07:21:28;8.57;;;3.15;;
27857;SDS011;16852;51.446;6.528;2023-07-31T07:23:28;8.18;;;3.90;;
27857;SDS011;16852;51.446;6.528;2023-07-31T07:25:29;8.00;;;3.70;;
27857;SDS011;16852;51.446;6.528;2023-07-31T07:27:29;5.13;;;3.25;;
27857;SDS011;16852;51.446;6.528;2023-07-31T07:29:30;4.95;;;3.42;;
27857;SDS011;16852;51.446;6.528;2023-07-31T07:31:31;8.50;;;3.45;;
27857;SDS011;16852;51.446;6.528;2023-07-31T07:33:32;6.93;;;3.70;;
27857;SDS011;16852;51.446;6.528;2023-07-31T07:35:35;6.57;;;3.20;;
27857;SDS011;16852;51.446;6.528;2023-07-31T07:37:36;6.05;;;2.83;;
27857;SDS011;16852;51.446;6.528;2023-07-31T07:39:37;6.50;;;3.58;;
27857;SDS011;16852;51.446;6.528;2023-07-31T07:41:37;4.75;;;2.45;;
27857;SDS011;16852;51.446;6.528;2023-07-31T07:43:38;5.55;;;2.58;;
27857;SDS011;16852;51.446;6.528;2023-07-31T07:45:39;4.10;;;2.45;;
27857;SDS011;16852;51.446;6.528;2023-07-31T07:47:40;3.88;;;2.20;;
27857;SDS011;16852;51.446;6.528;2023-07-31T07:49:41;5.72;;;2.95;;
27857;SDS011;16852;51.446;6.528;2023-07-31T07:51:42;5.93;;;2.92;;
27857;SDS011;16852;51.446;6.528;2023-07-31T07:53:42;4.78;;;2.28;;
27857;SDS011;16852;51.446;6.528;2023-07-31T07:55:43;4.85;;;2.42;;
27857;SDS011;16852;51.446;6.528;2023-07-31T07:57:43;4.15;;;2.38;;
27857;SDS011;16852;51.446;6.528;2023-07-31T07:59:44;3.22;;;2.30;;
27857;SDS011;16852;51.446;6.528;2023-07-31T08:01:45;3.42;;;2.10;;
27857;SDS011;16852;51.446;6.528;2023-07-31T08:03:46;3.30;;;2.03;;
27857;SDS011;16852;51.446;6.528;2023-07-31T08:05:47;5.15;;;2.53;;
27857;SDS011;16852;51.446;6.528;2023-07-31T08:07:48;4.50;;;2.40;;
27857;SDS011;16852;51.446;6.528;2023-07-31T08:09:48;4.75;;;2.55;;
27857;SDS011;16852;51.446;6.528;2023-07-31T08:11:49;4.65;;;2.47;;
27857;SDS011;16852;51.446;6.528;2023-07-31T08:13:49;4.30;;;2.10;;
27857;SDS011;16852;51.446;6.528;2023-07-31T08:15:50;4.15;;;2.20;;
27857;SDS011;16852;51.446;6.528;2023-07-31T08:17:51;6.35;;;2.25;;
27857;SDS011;16852;51.446;6.528;2023-07-31T08:19:51;4.10;;;2.17;;
27857;SDS011;16852;51.446;6.528;2023-07-31T08:21:52;3.45;;;2.17;;
27857;SDS011;16852;51.446;6.528;2023-07-31T08:23:52;6.07;;;2.35;;
27857;SDS011;16852;51.446;6.528;2023-07-31T08:25:53;7.47;;;2.67;;
27857;SDS011;16852;51.446;6.528;2023-07-31T08:27:53;3.90;;;2.05;;
27857;SDS011;16852;51.446;6.528;2023-07-31T08:29:54;3.28;;;2.38;;
27857;SDS011;16852;51.446;6.528;2023-07-31T08:31:55;4.57;;;2.63;;
27857;SDS011;16852;51.446;6.528;2023-07-31T08:33:55;4.00;;;2.30;;
27857;SDS011;16852;51.446;6.528;2023-07-31T08:35:56;7.05;;;2.83;;
27857;SDS011;16852;51.446;6.528;2023-07-31T08:37:57;4.30;;;2.50;;
27857;SDS011;16852;51.446;6.528;2023-07-31T08:39:57;6.68;;;2.83;;
27857;SDS011;16852;51.446;6.528;2023-07-31T08:41:58;2.97;;;1.80;;
27857;SDS011;16852;51.446;6.528;2023-07-31T08:44:00;3.75;;;2.60;;
27857;SDS011;16852;51.446;6.528;2023-07-31T08:46:02;5.07;;;3.00;;
27857;SDS011;16852;51.446;6.528;2023-07-31T08:48:03;4.55;;;2.20;;
27857;SDS011;16852;51.446;6.528;2023-07-31T08:50:04;3.25;;;2.10;;
27857;SDS011;16852;51.446;6.528;2023-07-31T08:52:06;3.67;;;2.30;;
27857;SDS011;16852;51.446;6.528;2023-07-31T08:54:07;4.35;;;2.10;;
27857;SDS011;16852;51.446;6.528;2023-07-31T08:56:08;4.53;;;2.42;;
27857;SDS011;16852;51.446;6.528;2023-07-31T08:58:09;4.68;;;2.97;;
27857;SDS011;16852;51.446;6.528;2023-07-31T09:00:13;5.95;;;2.92;;
27857;SDS011;16852;51.446;6.528;2023-07-31T09:02:14;4.33;;;2.30;;
27857;SDS011;16852;51.446;6.528;2023-07-31T09:04:17;4.03;;;2.20;;
27857;SDS011;16852;51.446;6.528;2023-07-31T09:06:19;5.63;;;2.58;;
27857;SDS011;16852;51.446;6.528;2023-07-31T09:08:23;3.75;;;2.10;;
27857;SDS011;16852;51.446;6.528;2023-07-31T09:10:29;5.03;;;2.58;;
27857;SDS011;16852;51.446;6.528;2023-07-31T09:12:30;4.63;;;2.40;;
27857;SDS011;16852;51.446;6.528;2023-07-31T09:14:31;4.45;;;2.40;;
27857;SDS011;16852;51.446;6.528;2023-07-31T09:16:33;4.32;;;2.53;;
27857;SDS011;16852;51.446;6.528;2023-07-31T09:18:45;5.78;;;2.55;;
27857;SDS011;16852;51.446;6.528;2023-07-31T09:23:05;3.75;;;2.10;;
27857;SDS011;16852;51.446;6.528;2023-07-31T09:27:26;5.95;;;2.78;;
27857;SDS011;16852;51.446;6.528;2023-07-31T09:29:27;4.60;;;2.10;;
27857;SDS011;16852;51.446;6.528;2023-07-31T09:31:33;4.18;;;2.45;;
27857;SDS011;16852;51.446;6.528;2023-07-31T09:33:53;3.28;;;2.05;;
27857;SDS011;16852;51.446;6.528;2023-07-31T09:35:55;4.80;;;2.40;;
27857;SDS011;16852;51.446;6.528;2023-07-31T09:38:00;4.35;;;2.33;;
27857;SDS011;16852;51.446;6.528;2023-07-31T09:40:04;4.38;;;2.42;;
27857;SDS011;16852;51.446;6.528;2023-07-31T09:42:05;5.13;;;2.55;;
27857;SDS011;16852;51.446;6.528;2023-07-31T09:44:06;3.72;;;2.35;;
27857;SDS011;16852;51.446;6.528;2023-07-31T09:46:12;3.35;;;2.30;;
27857;SDS011;16852;51.446;6.528;2023-07-31T09:48:15;3.47;;;2.33;;
27857;SDS011;16852;51.446;6.528;2023-07-31T09:50:21;5.28;;;2.03;;
27857;SDS011;16852;51.446;6.528;2023-07-31T09:52:22;4.03;;;2.13;;
27857;SDS011;16852;51.446;6.528;2023-07-31T09:54:27;3.05;;;1.90;;
27857;SDS011;16852;51.446;6.528;2023-07-31T09:56:28;5.47;;;2.33;;
27857;SDS011;16852;51.446;6.528;2023-07-31T09:58:29;3.78;;;2.28;;
27857;SDS011;16852;51.446;6.528;2023-07-31T10:00:32;4.63;;;2.38;;
27857;SDS011;16852;51.446;6.528;2023-07-31T10:02:32;2.95;;;2.00;;
27857;SDS011;16852;51.446;6.528;2023-07-31T10:04:33;3.90;;;2.22;;
27857;SDS011;16852;51.446;6.528;2023-07-31T10:06:34;3.47;;;2.20;;
27857;SDS011;16852;51.446;6.528;2023-07-31T10:08:36;4.20;;;2.72;;
27857;SDS011;16852;51.446;6.528;2023-07-31T10:10:38;4.63;;;2.73;;
27857;SDS011;16852;51.446;6.528;2023-07-31T10:12:42;5.30;;;2.67;;
27857;SDS011;16852;51.446;6.528;2023-07-31T10:14:45;3.03;;;2.25;;
27857;SDS011;16852;51.446;6.528;2023-07-31T10:16:46;4.90;;;2.72;;
27857;SDS011;16852;51.446;6.528;2023-07-31T10:18:48;6.38;;;2.42;;
27857;SDS011;16852;51.446;6.528;2023-07-31T10:20:50;3.25;;;2.25;;
27857;SDS011;16852;51.446;6.528;2023-07-31T10:22:51;4.57;;;2.58;;
27857;SDS011;16852;51.446;6.528;2023-07-31T10:24:54;3.10;;;2.35;;
27857;SDS011;16852;51.446;6.528;2023-07-31T10:26:57;3.97;;;2.60;;
27857;SDS011;16852;51.446;6.528;2023-07-31T10:28:59;4.38;;;2.63;;
27857;SDS011;16852;51.446;6.528;2023-07-31T10:31:01;3.45;;;2.63;;
27857;SDS011;16852;51.446;6.528;2023-07-31T10:33:04;4.28;;;2.90;;
27857;SDS011;16852;51.446;6.528;2023-07-31T10:35:06;4.90;;;2.50;;
27857;SDS011;16852;51.446;6.528;2023-07-31T10:37:24;3.85;;;2.33;;
27857;SDS011;16852;51.446;6.528;2023-07-31T10:39:36;5.35;;;2.67;;
27857;SDS011;16852;51.446;6.528;2023-07-31T10:41:38;5.97;;;2.72;;
27857;SDS011;16852;51.446;6.528;2023-07-31T10:43:38;15.85;;;2.72;;
27857;SDS011;16852;51.446;6.528;2023-07-31T10:45:41;3.90;;;2.45;;
27857;SDS011;16852;51.446;6.528;2023-07-31T10:47:43;4.32;;;2.40;;
27857;SDS011;16852;51.446;6.528;2023-07-31T10:49:45;6.53;;;2.72;;
27857;SDS011;16852;51.446;6.528;2023-07-31T10:51:47;4.90;;;2.50;;
27857;SDS011;16852;51.446;6.528;2023-07-31T10:53:47;3.20;;;2.22;;
27857;SDS011;16852;51.446;6.528;2023-07-31T10:55:48;5.03;;;2.30;;
27857;SDS011;16852;51.446;6.528;2023-07-31T10:57:51;4.45;;;2.45;;
27857;SDS011;16852;51.446;6.528;2023-07-31T11:00:16;4.20;;;2.28;;
27857;SDS011;16852;51.446;6.528;2023-07-31T11:02:25;6.13;;;2.38;;
27857;SDS011;16852;51.446;6.528;2023-07-31T11:04:27;3.83;;;2.35;;
27857;SDS011;16852;51.446;6.528;2023-07-31T11:06:29;2.92;;;2.08;;
27857;SDS011;16852;51.446;6.528;2023-07-31T11:08:31;4.72;;;2.33;;
27857;SDS011;16852;51.446;6.528;2023-07-31T11:10:33;4.55;;;2.35;;
27857;SDS011;16852;51.446;6.528;2023-07-31T11:12:33;2.97;;;2.05;;
27857;SDS011;16852;51.446;6.528;2023-07-31T11:14:34;4.45;;;2.20;;
27857;SDS011;16852;51.446;6.528;2023-07-31T11:16:34;3.55;;;2.20;;
27857;SDS011;16852;51.446;6.528;2023-07-31T11:18:35;3.15;;;1.67;;
27857;SDS011;16852;51.446;6.528;2023-07-31T11:22:48;2.83;;;1.65;;
27857;SDS011;16852;51.446;6.528;2023-07-31T11:24:49;3.80;;;2.00;;
27857;SDS011;16852;51.446;6.528;2023-07-31T11:26:53;4.63;;;2.13;;
27857;SDS011;16852;51.446;6.528;2023-07-31T11:28:54;4.07;;;1.95;;
27857;SDS011;16852;51.446;6.528;2023-07-31T11:30:55;3.35;;;2.10;;
27857;SDS011;16852;51.446;6.528;2023-07-31T11:32:56;2.78;;;1.92;;
27857;SDS011;16852;51.446;6.528;2023-07-31T11:34:56;4.68;;;2.35;;
27857;SDS011;16852;51.446;6.528;2023-07-31T11:36:57;3.20;;;1.80;;
27857;SDS011;16852;51.446;6.528;2023-07-31T11:39:05;3.28;;;2.08;;
27857;SDS011;16852;51.446;6.528;2023-07-31T11:41:09;4.63;;;2.10;;
27857;SDS011;16852;51.446;6.528;2023-07-31T11:43:10;3.42;;;2.03;;
27857;SDS011;16852;51.446;6.528;2023-07-31T11:45:17;3.13;;;2.28;;
27857;SDS011;16852;51.446;6.528;2023-07-31T11:47:17;4.05;;;1.90;;
27857;SDS011;16852;51.446;6.528;2023-07-31T11:49:18;4.50;;;2.42;;
27857;SDS011;16852;51.446;6.528;2023-07-31T11:51:19;4.10;;;2.08;;
27857;SDS011;16852;51.446;6.528;2023-07-31T11:53:23;3.75;;;2.25;;
27857;SDS011;16852;51.446;6.528;2023-07-31T11:55:31;3.72;;;2.42;;
27857;SDS011;16852;51.446;6.528;2023-07-31T11:57:32;3.22;;;2.25;;
27857;SDS011;16852;51.446;6.528;2023-07-31T11:59:33;3.40;;;2.22;;
27857;SDS011;16852;51.446;6.528;2023-07-31T12:01:34;3.63;;;2.03;;
27857;SDS011;16852;51.446;6.528;2023-07-31T12:03:35;3.78;;;2.28;;
27857;SDS011;16852;51.446;6.528;2023-07-31T12:05:36;3.55;;;2.00;;
27857;SDS011;16852;51.446;6.528;2023-07-31T12:09:55;3.70;;;2.08;;
27857;SDS011;16852;51.446;6.528;2023-07-31T12:11:56;2.13;;;1.70;;
27857;SDS011;16852;51.446;6.528;2023-07-31T12:13:57;6.35;;;2.42;;
27857;SDS011;16852;51.446;6.528;2023-07-31T12:15:58;2.50;;;1.80;;
27857;SDS011;16852;51.446;6.528;2023-07-31T12:18:00;3.05;;;1.92;;
27857;SDS011;16852;51.446;6.528;2023-07-31T12:20:04;4.13;;;2.28;;
27857;SDS011;16852;51.446;6.528;2023-07-31T12:22:13;3.92;;;2.05;;
27857;SDS011;16852;51.446;6.528;2023-07-31T12:24:17;2.88;;;1.80;;
27857;SDS011;16852;51.446;6.528;2023-07-31T12:26:19;2.60;;;1.80;;
27857;SDS011;16852;51.446;6.528;2023-07-31T12:28:22;2.75;;;1.95;;
27857;SDS011;16852;51.446;6.528;2023-07-31T12:30:26;3.83;;;2.13;;